sensor_id;sensor_type;location;lat;lon;timestamp;pressure;altitude;pressure_sealevel;temperature;humidity
24962;BME280;12992;50.884;13.668;2023-02-02T00:01:27;97025.34;;;1.86;100.00
24962;BME280;12992;50.884;13.668;2023-02-02T00:03:52;97026.56;;;1.90;100.00
24962;BME280;12992;50.884;13.668;2023-02-02T00:06:22;97029.47;;;1.88;100.00
24962;BME280;12992;50.884;13.668;2023-02-02T00:08:48;97030.50;;;1.87;100.00
24962;BME280;12992;50.884;13.668;2023-02-02T00:11:14;97039.38;;;1.94;100.00
24962;BME280;12992;50.884;13.668;2023-02-02T00:13:39;97036.47;;;1.96;100.00
24962;BME280;12992;50.884;13.668;2023-02-02T00:18:53;97040.59;;;1.98;100.00
24962;BME280;12992;50.884;13.668;2023-02-02T00:21:20;97041.63;;;1.97;100.00
24962;BME280;12992;50.884;13.668;2023-02-02T00:23:46;97042.63;;;2.03;100.00
24962;BME280;12992;50.884;13.668;2023-02-02T00:26:11;97038.31;;;2.09;100.00
24962;BME280;12992;50.884;13.668;2023-02-02T00:28:36;97035.84;;;2.07;100.00
24962;BME280;12992;50.884;13.668;2023-02-02T00:31:02;97023.84;;;2.03;100.00
24962;BME280;12992;50.884;13.668;2023-02-02T00:33:27;97015.81;;;1.96;100.00
24962;BME280;12992;50.884;13.668;2023-02-02T00:35:53;97023.66;;;1.98;100.00
24962;BME280;12992;50.884;13.668;2023-02-02T00:38:19;97022.84;;;1.97;100.00
24962;BME280;12992;50.884;13.668;2023-02-02T00:40:44;97018.28;;;1.98;100.00
24962;BME280;12992;50.884;13.668;2023-02-02T00:43:10;97011.47;;;1.95;100.00
24962;BME280;12992;50.884;13.668;2023-02-02T00:45:36;97014.34;;;1.94;100.00
24962;BME280;12992;50.884;13.668;2023-02-02T00:48:02;97010.88;;;1.87;100.00
24962;BME280;12992;50.884;13.668;2023-02-02T00:50:27;96991.44;;;1.85;100.00
24962;BME280;12992;50.884;13.668;2023-02-02T00:52:53;97002.41;;;1.83;100.00
24962;BME280;12992;50.884;13.668;2023-02-02T00:55:18;97008.63;;;1.77;100.00
24962;BME280;12992;50.884;13.668;2023-02-02T00:57:44;97007.59;;;1.78;100.00
24962;BME280;12992;50.884;13.668;2023-02-02T01:00:13;97005.28;;;1.75;100.00
24962;BME280;12992;50.884;13.668;2023-02-02T01:02:39;96996.00;;;1.71;100.00
24962;BME280;12992;50.884;13.668;2023-02-02T01:05:05;96998.09;;;1.69;100.00
24962;BME280;12992;50.884;13.668;2023-02-02T01:07:31;96993.94;;;1.66;100.00
24962;BME280;12992;50.884;13.668;2023-02-02T01:09:57;97002.63;;;1.68;100.00
24962;BME280;12992;50.884;13.668;2023-02-02T01:12:22;97005.72;;;1.72;100.00
24962;BME280;12992;50.884;13.668;2023-02-02T01:14:47;97015.00;;;1.76;100.00
24962;BME280;12992;50.884;13.668;2023-02-02T01:17:13;97018.50;;;1.83;100.00
24962;BME280;12992;50.884;13.668;2023-02-02T01:19:38;97023.06;;;1.89;100.00
24962;BME280;12992;50.884;13.668;2023-02-02T01:22:05;97034.41;;;1.98;100.00
24962;BME280;12992;50.884;13.668;2023-02-02T01:24:30;97038.31;;;2.02;100.00
24962;BME280;12992;50.884;13.668;2023-02-02T01:26:55;97035.44;;;1.97;100.00
24962;BME280;12992;50.884;13.668;2023-02-02T01:29:22;97028.59;;;2.01;100.00
24962;BME280;12992;50.884;13.668;2023-02-02T01:31:48;97023.66;;;2.05;100.00
24962;BME280;12992;50.884;13.668;2023-02-02T01:34:13;97036.88;;;2.13;100.00
24962;BME280;12992;50.884;13.668;2023-02-02T01:36:39;97020.75;;;2.13;100.00
24962;BME280;12992;50.884;13.668;2023-02-02T01:39:04;97026.53;;;2.16;100.00
24962;BME280;12992;50.884;13.668;2023-02-02T01:41:29;97025.91;;;2.14;100.00
24962;BME280;12992;50.884;13.668;2023-02-02T01:43:58;97018.03;;;2.19;100.00
24962;BME280;12992;50.884;13.668;2023-02-02T01:46:28;97016.38;;;2.18;100.00
24962;BME280;12992;50.884;13.668;2023-02-02T01:49:06;97019.06;;;2.18;100.00
24962;BME280;12992;50.884;13.668;2023-02-02T01:51:39;97019.28;;;2.23;100.00
24962;BME280;12992;50.884;13.668;2023-02-02T01:54:08;97015.78;;;2.23;100.00
24962;BME280;12992;50.884;13.668;2023-02-02T01:56:41;97014.50;;;2.25;100.00
24962;BME280;12992;50.884;13.668;2023-02-02T01:59:08;97008.31;;;2.25;100.00
24962;BME280;12992;50.884;13.668;2023-02-02T02:01:34;96997.56;;;2.25;100.00
24962;BME280;12992;50.884;13.668;2023-02-02T02:03:59;97002.34;;;2.23;100.00
24962;BME280;12992;50.884;13.668;2023-02-02T02:06:27;97001.09;;;2.19;100.00
24962;BME280;12992;50.884;13.668;2023-02-02T02:08:56;97005.63;;;2.25;100.00
24962;BME280;12992;50.884;13.668;2023-02-02T02:11:23;96988.91;;;2.23;100.00
24962;BME280;12992;50.884;13.668;2023-02-02T02:13:51;96981.25;;;2.20;100.00
24962;BME280;12992;50.884;13.668;2023-02-02T02:23:01;96993.03;;;2.19;100.00
24962;BME280;12992;50.884;13.668;2023-02-02T02:26:16;96998.00;;;2.22;100.00
24962;BME280;12992;50.884;13.668;2023-02-02T02:32:03;96998.59;;;2.24;100.00
24962;BME280;12992;50.884;13.668;2023-02-02T02:37:11;96993.03;;;2.25;100.00
24962;BME280;12992;50.884;13.668;2023-02-02T02:39:55;96993.44;;;2.22;100.00
24962;BME280;12992;50.884;13.668;2023-02-02T02:42:25;96995.09;;;2.23;100.00
24962;BME280;12992;50.884;13.668;2023-02-02T02:44:54;96986.81;;;2.25;100.00
24962;BME280;12992;50.884;13.668;2023-02-02T02:47:20;97004.16;;;2.36;100.00
24962;BME280;12992;50.884;13.668;2023-02-02T02:49:47;97001.25;;;2.37;100.00
24962;BME280;12992;50.884;13.668;2023-02-02T02:52:14;97000.84;;;2.40;100.00
24962;BME280;12992;50.884;13.668;2023-02-02T02:54:42;96991.13;;;2.39;100.00
24962;BME280;12992;50.884;13.668;2023-02-02T03:00:46;96984.06;;;2.38;100.00
24962;BME280;12992;50.884;13.668;2023-02-02T03:03:27;96983.91;;;2.40;100.00
24962;BME280;12992;50.884;13.668;2023-02-02T03:06:13;96989.25;;;2.40;100.00
24962;BME280;12992;50.884;13.668;2023-02-02T03:08:46;96988.44;;;2.39;100.00
24962;BME280;12992;50.884;13.668;2023-02-02T03:11:13;96979.75;;;2.37;100.00
24962;BME280;12992;50.884;13.668;2023-02-02T03:13:40;96985.31;;;2.42;100.00
24962;BME280;12992;50.884;13.668;2023-02-02T03:16:06;97001.00;;;2.45;100.00
24962;BME280;12992;50.884;13.668;2023-02-02T03:18:32;97009.91;;;2.46;100.00
24962;BME280;12992;50.884;13.668;2023-02-02T03:20:58;96988.00;;;2.42;100.00
24962;BME280;12992;50.884;13.668;2023-02-02T03:23:24;97017.13;;;2.45;100.00
24962;BME280;12992;50.884;13.668;2023-02-02T03:25:49;97016.31;;;2.45;100.00
24962;BME280;12992;50.884;13.668;2023-02-02T03:28:16;97010.34;;;2.43;100.00
24962;BME280;12992;50.884;13.668;2023-02-02T03:30:43;97006.81;;;2.42;100.00
24962;BME280;12992;50.884;13.668;2023-02-02T03:33:10;97000.41;;;2.43;100.00
24962;BME280;12992;50.884;13.668;2023-02-02T03:35:36;97010.75;;;2.40;100.00
24962;BME280;12992;50.884;13.668;2023-02-02T03:38:01;96991.72;;;2.41;100.00
24962;BME280;12992;50.884;13.668;2023-02-02T03:40:28;97009.50;;;2.42;100.00
24962;BME280;12992;50.884;13.668;2023-02-02T03:42:53;96993.38;;;2.42;100.00
24962;BME280;12992;50.884;13.668;2023-02-02T03:45:19;97003.75;;;2.39;100.00
24962;BME280;12992;50.884;13.668;2023-02-02T03:47:45;97026.06;;;2.39;100.00
24962;BME280;12992;50.884;13.668;2023-02-02T03:50:10;97020.06;;;2.37;100.00
24962;BME280;12992;50.884;13.668;2023-02-02T03:52:35;97026.25;;;2.38;100.00
24962;BME280;12992;50.884;13.668;2023-02-02T03:55:01;97027.72;;;2.40;100.00
24962;BME280;12992;50.884;13.668;2023-02-02T03:57:26;97026.06;;;2.39;100.00
24962;BME280;12992;50.884;13.668;2023-02-02T03:59:51;97024.19;;;2.40;100.00
24962;BME280;12992;50.884;13.668;2023-02-02T04:02:17;97025.03;;;2.40;100.00
24962;BME280;12992;50.884;13.668;2023-02-02T04:04:42;97035.34;;;2.43;100.00
24962;BME280;12992;50.884;13.668;2023-02-02T04:07:07;97021.91;;;2.43;100.00
24962;BME280;12992;50.884;13.668;2023-02-02T04:09:33;97039.28;;;2.47;100.00
24962;BME280;12992;50.884;13.668;2023-02-02T04:11:58;97018.38;;;2.43;100.00
24962;BME280;12992;50.884;13.668;2023-02-02T04:14:23;97026.84;;;2.46;100.00
24962;BME280;12992;50.884;13.668;2023-02-02T04:16:49;97026.25;;;2.44;100.00
24962;BME280;12992;50.884;13.668;2023-02-02T04:19:15;97031.63;;;2.44;100.00
24962;BME280;12992;50.884;13.668;2023-02-02T04:21:41;97039.69;;;2.44;100.00
24962;BME280;12992;50.884;13.668;2023-02-02T04:24:10;97040.09;;;2.41;100.00
24962;BME280;12992;50.884;13.668;2023-02-02T04:26:35;97045.25;;;2.43;100.00
24962;BME280;12992;50.884;13.668;2023-02-02T04:29:00;97027.72;;;2.40;100.00
24962;BME280;12992;50.884;13.668;2023-02-02T04:31:26;97023.78;;;2.43;100.00
24962;BME280;12992;50.884;13.668;2023-02-02T04:33:51;97041.75;;;2.42;100.00
24962;BME280;12992;50.884;13.668;2023-02-02T04:36:16;97052.94;;;2.39;100.00
24962;BME280;12992;50.884;13.668;2023-02-02T04:38:42;97046.97;;;2.31;100.00
24962;BME280;12992;50.884;13.668;2023-02-02T04:41:10;97048.00;;;2.23;100.00
24962;BME280;12992;50.884;13.668;2023-02-02T04:43:37;97052.13;;;2.19;100.00
24962;BME280;12992;50.884;13.668;2023-02-02T04:46:03;97054.41;;;2.22;100.00
24962;BME280;12992;50.884;13.668;2023-02-02T04:48:28;97043.47;;;2.23;100.00
24962;BME280;12992;50.884;13.668;2023-02-02T04:50:58;97037.88;;;2.32;100.00
24962;BME280;12992;50.884;13.668;2023-02-02T04:53:24;97055.84;;;2.31;100.00
24962;BME280;12992;50.884;13.668;2023-02-02T04:55:49;97065.78;;;2.31;100.00
24962;BME280;12992;50.884;13.668;2023-02-02T04:58:15;97052.34;;;2.31;100.00
24962;BME280;12992;50.884;13.668;2023-02-02T05:00:40;97073.00;;;2.30;100.00
24962;BME280;12992;50.884;13.668;2023-02-02T05:03:05;97068.63;;;2.29;100.00
24962;BME280;12992;50.884;13.668;2023-02-02T05:05:31;97070.94;;;2.32;100.00
24962;BME280;12992;50.884;13.668;2023-02-02T05:07:56;97064.31;;;2.28;100.00
24962;BME280;12992;50.884;13.668;2023-02-02T05:10:21;97074.84;;;2.30;100.00
24962;BME280;12992;50.884;13.668;2023-02-02T05:12:47;97067.22;;;2.33;100.00
24962;BME280;12992;50.884;13.668;2023-02-02T05:15:12;97067.81;;;2.35;100.00
24962;BME280;12992;50.884;13.668;2023-02-02T05:17:37;97080.63;;;2.40;100.00
24962;BME280;12992;50.884;13.668;2023-02-02T05:20:03;97073.41;;;2.40;100.00
24962;BME280;12992;50.884;13.668;2023-02-02T05:22:28;97071.75;;;2.39;100.00
24962;BME280;12992;50.884;13.668;2023-02-02T05:24:53;97054.81;;;2.39;100.00
24962;BME280;12992;50.884;13.668;2023-02-02T05:27:19;97096.94;;;2.38;100.00
24962;BME280;12992;50.884;13.668;2023-02-02T05:29:46;97084.97;;;2.34;100.00
24962;BME280;12992;50.884;13.668;2023-02-02T05:32:11;97083.75;;;2.30;100.00
24962;BME280;12992;50.884;13.668;2023-02-02T05:34:36;97098.84;;;2.31;100.00
24962;BME280;12992;50.884;13.668;2023-02-02T05:37:02;97099.88;;;2.30;100.00
24962;BME280;12992;50.884;13.668;2023-02-02T05:39:27;97098.22;;;2.22;100.00
24962;BME280;12992;50.884;13.668;2023-02-02T05:41:52;97083.53;;;2.12;100.00
24962;BME280;12992;50.884;13.668;2023-02-02T05:44:18;97097.81;;;2.12;100.00
24962;BME280;12992;50.884;13.668;2023-02-02T05:46:43;97097.63;;;2.14;100.00
24962;BME280;12992;50.884;13.668;2023-02-02T05:49:13;97104.44;;;2.16;100.00
24962;BME280;12992;50.884;13.668;2023-02-02T05:51:43;97102.34;;;2.25;100.00
24962;BME280;12992;50.884;13.668;2023-02-02T05:54:10;97135.00;;;2.28;100.00
24962;BME280;12992;50.884;13.668;2023-02-02T05:56:36;97133.34;;;2.34;100.00
24962;BME280;12992;50.884;13.668;2023-02-02T05:59:01;97132.09;;;2.37;100.00
24962;BME280;12992;50.884;13.668;2023-02-02T06:01:31;97137.25;;;2.38;100.00
24962;BME280;12992;50.884;13.668;2023-02-02T06:03:57;97123.63;;;2.40;100.00
24962;BME280;12992;50.884;13.668;2023-02-02T06:06:22;97141.81;;;2.44;100.00
24962;BME280;12992;50.884;13.668;2023-02-02T06:08:47;97141.81;;;2.44;100.00
24962;BME280;12992;50.884;13.668;2023-02-02T06:11:15;97131.47;;;2.41;100.00
24962;BME280;12992;50.884;13.668;2023-02-02T06:13:41;97136.25;;;2.39;100.00
24962;BME280;12992;50.884;13.668;2023-02-02T06:16:07;97151.34;;;2.40;100.00
24962;BME280;12992;50.884;13.668;2023-02-02T06:18:33;97148.22;;;2.37;100.00
24962;BME280;12992;50.884;13.668;2023-02-02T06:20:59;97166.63;;;2.33;100.00
24962;BME280;12992;50.884;13.668;2023-02-02T06:23:25;97163.72;;;2.28;100.00
24962;BME280;12992;50.884;13.668;2023-02-02T06:25:51;97165.78;;;2.26;100.00
24962;BME280;12992;50.884;13.668;2023-02-02T06:28:16;97158.34;;;2.28;100.00
24962;BME280;12992;50.884;13.668;2023-02-02T06:30:42;97167.88;;;2.24;100.00
24962;BME280;12992;50.884;13.668;2023-02-02T06:33:07;97171.16;;;2.26;100.00
24962;BME280;12992;50.884;13.668;2023-02-02T06:35:32;97168.47;;;2.26;100.00
24962;BME280;12992;50.884;13.668;2023-02-02T06:37:58;97165.59;;;2.27;100.00
24962;BME280;12992;50.884;13.668;2023-02-02T06:40:24;97178.81;;;2.29;100.00
24962;BME280;12992;50.884;13.668;2023-02-02T06:42:57;97184.38;;;2.27;100.00
24962;BME280;12992;50.884;13.668;2023-02-02T06:45:23;97182.34;;;2.23;100.00
24962;BME280;12992;50.884;13.668;2023-02-02T06:47:48;97182.34;;;2.23;100.00
24962;BME280;12992;50.884;13.668;2023-02-02T06:50:14;97187.72;;;2.23;100.00
24962;BME280;12992;50.884;13.668;2023-02-02T06:52:49;97192.25;;;2.16;100.00
24962;BME280;12992;50.884;13.668;2023-02-02T06:55:14;97191.63;;;2.14;100.00
24962;BME280;12992;50.884;13.668;2023-02-02T06:57:40;97193.69;;;2.12;100.00
24962;BME280;12992;50.884;13.668;2023-02-02T07:00:06;97207.53;;;2.09;100.00
24962;BME280;12992;50.884;13.668;2023-02-02T07:02:31;97206.28;;;2.11;100.00
24962;BME280;12992;50.884;13.668;2023-02-02T07:04:56;97212.09;;;2.15;100.00
24962;BME280;12992;50.884;13.668;2023-02-02T07:07:22;97213.75;;;2.16;100.00
24962;BME280;12992;50.884;13.668;2023-02-02T07:09:47;97220.75;;;2.17;100.00
24962;BME280;12992;50.884;13.668;2023-02-02T07:12:12;97227.56;;;2.19;100.00
24962;BME280;12992;50.884;13.668;2023-02-02T07:14:38;97234.22;;;2.23;100.00
24962;BME280;12992;50.884;13.668;2023-02-02T07:17:03;97222.44;;;2.24;100.00
24962;BME280;12992;50.884;13.668;2023-02-02T07:19:28;97247.66;;;2.30;100.00
24962;BME280;12992;50.884;13.668;2023-02-02T07:21:53;97258.00;;;2.33;100.00
24962;BME280;12992;50.884;13.668;2023-02-02T07:24:19;97248.28;;;2.32;100.00
24962;BME280;12992;50.884;13.668;2023-02-02T07:26:44;97242.28;;;2.30;100.00
24962;BME280;12992;50.884;13.668;2023-02-02T07:29:13;97248.50;;;2.31;100.00
24962;BME280;12992;50.884;13.668;2023-02-02T07:31:38;97255.50;;;2.32;100.00
24962;BME280;12992;50.884;13.668;2023-02-02T07:34:04;97255.31;;;2.33;100.00
24962;BME280;12992;50.884;13.668;2023-02-02T07:36:29;97251.78;;;2.33;100.00
24962;BME280;12992;50.884;13.668;2023-02-02T07:38:55;97250.34;;;2.30;100.00
24962;BME280;12992;50.884;13.668;2023-02-02T07:41:24;97254.69;;;2.31;100.00
24962;BME280;12992;50.884;13.668;2023-02-02T07:43:49;97249.69;;;2.28;100.00
24962;BME280;12992;50.884;13.668;2023-02-02T07:46:16;97263.16;;;2.35;100.00
24962;BME280;12992;50.884;13.668;2023-02-02T07:48:42;97258.00;;;2.33;100.00
24962;BME280;12992;50.884;13.668;2023-02-02T07:51:13;97240.22;;;2.32;100.00
24962;BME280;12992;50.884;13.668;2023-02-02T07:53:42;97258.00;;;2.33;100.00
24962;BME280;12992;50.884;13.668;2023-02-02T07:56:08;97263.78;;;2.37;100.00
24962;BME280;12992;50.884;13.668;2023-02-02T07:58:34;97269.97;;;2.37;100.00
24962;BME280;12992;50.884;13.668;2023-02-02T08:01:01;97289.00;;;2.42;100.00
24962;BME280;12992;50.884;13.668;2023-02-02T08:03:27;97291.28;;;2.45;100.00
24962;BME280;12992;50.884;13.668;2023-02-02T08:05:52;97284.47;;;2.49;100.00
24962;BME280;12992;50.884;13.668;2023-02-02T08:08:18;97274.94;;;2.53;100.00
24962;BME280;12992;50.884;13.668;2023-02-02T08:10:50;97289.00;;;2.55;100.00
24962;BME280;12992;50.884;13.668;2023-02-02T08:13:15;97284.88;;;2.53;100.00
24962;BME280;12992;50.884;13.668;2023-02-02T08:15:41;97286.97;;;2.58;100.00
24962;BME280;12992;50.884;13.668;2023-02-02T08:18:06;97289.66;;;2.58;100.00
24962;BME280;12992;50.884;13.668;2023-02-02T08:20:31;97286.97;;;2.58;100.00
24962;BME280;12992;50.884;13.668;2023-02-02T08:22:57;97281.97;;;2.54;100.00
24962;BME280;12992;50.884;13.668;2023-02-02T08:25:22;97291.31;;;2.59;100.00
24962;BME280;12992;50.884;13.668;2023-02-02T08:27:52;97295.63;;;2.60;100.00
24962;BME280;12992;50.884;13.668;2023-02-02T08:30:17;97292.75;;;2.61;100.00
24962;BME280;12992;50.884;13.668;2023-02-02T08:32:42;97296.47;;;2.60;100.00
24962;BME280;12992;50.884;13.668;2023-02-02T08:35:08;97298.53;;;2.65;100.00
24962;BME280;12992;50.884;13.668;2023-02-02T08:37:33;97299.56;;;2.64;100.00
24962;BME280;12992;50.884;13.668;2023-02-02T08:39:58;97311.34;;;2.69;100.00
24962;BME280;12992;50.884;13.668;2023-02-02T08:42:24;97302.47;;;2.62;100.00
24962;BME280;12992;50.884;13.668;2023-02-02T08:44:49;97310.53;;;2.69;100.00
24962;BME280;12992;50.884;13.668;2023-02-02T08:47:14;97310.13;;;2.72;100.00
24962;BME280;12992;50.884;13.668;2023-02-02T08:49:39;97313.41;;;2.74;100.00
24962;BME280;12992;50.884;13.668;2023-02-02T08:52:06;97309.28;;;2.71;100.00
24962;BME280;12992;50.884;13.668;2023-02-02T08:54:31;97321.47;;;2.74;100.00
24962;BME280;12992;50.884;13.668;2023-02-02T08:56:57;97329.56;;;2.74;100.00
24962;BME280;12992;50.884;13.668;2023-02-02T08:59:23;97336.78;;;2.73;100.00
24962;BME280;12992;50.884;13.668;2023-02-02T09:01:48;97341.34;;;2.73;100.00
24962;BME280;12992;50.884;13.668;2023-02-02T09:04:15;97329.56;;;2.67;100.00
24962;BME280;12992;50.884;13.668;2023-02-02T09:06:41;97339.91;;;2.70;100.00
24962;BME280;12992;50.884;13.668;2023-02-02T09:09:10;97339.88;;;2.64;100.00
24962;BME280;12992;50.884;13.668;2023-02-02T09:11:37;97338.66;;;2.60;100.00
24962;BME280;12992;50.884;13.668;2023-02-02T09:14:03;97333.69;;;2.57;100.00
24962;BME280;12992;50.884;13.668;2023-02-02T09:16:31;97346.28;;;2.56;100.00
24962;BME280;12992;50.884;13.668;2023-02-02T09:18:57;97332.66;;;2.51;100.00
24962;BME280;12992;50.884;13.668;2023-02-02T09:21:22;97353.31;;;2.50;100.00
24962;BME280;12992;50.884;13.668;2023-02-02T09:23:50;97358.09;;;2.48;100.00
24962;BME280;12992;50.884;13.668;2023-02-02T09:28:58;97345.44;;;2.42;100.00
24962;BME280;12992;50.884;13.668;2023-02-02T09:31:24;97357.84;;;2.43;100.00
24962;BME280;12992;50.884;13.668;2023-02-02T09:33:50;97367.19;;;2.47;100.00
24962;BME280;12992;50.884;13.668;2023-02-02T09:36:18;97379.59;;;2.48;100.00
24962;BME280;12992;50.884;13.668;2023-02-02T09:38:44;97383.72;;;2.51;100.00
24962;BME280;12992;50.884;13.668;2023-02-02T09:41:23;97390.34;;;2.48;100.00
24962;BME280;12992;50.884;13.668;2023-02-02T09:47:11;97391.16;;;2.49;100.00
24962;BME280;12992;50.884;13.668;2023-02-02T09:49:58;97395.72;;;2.48;100.00
24962;BME280;12992;50.884;13.668;2023-02-02T09:52:39;97411.41;;;2.51;100.00
24962;BME280;12992;50.884;13.668;2023-02-02T09:55:11;97406.06;;;2.51;100.00
24962;BME280;12992;50.884;13.668;2023-02-02T09:57:44;97409.97;;;2.49;100.00
24962;BME280;12992;50.884;13.668;2023-02-02T10:00:29;97410.19;;;2.47;100.00
24962;BME280;12992;50.884;13.668;2023-02-02T10:03:03;97416.38;;;2.48;100.00
24962;BME280;12992;50.884;13.668;2023-02-02T10:05:42;97420.06;;;2.47;100.00
24962;BME280;12992;50.884;13.668;2023-02-02T10:08:12;97425.06;;;2.50;100.00
24962;BME280;12992;50.884;13.668;2023-02-02T10:10:40;97414.72;;;2.47;100.00
24962;BME280;12992;50.884;13.668;2023-02-02T10:13:18;97426.06;;;2.42;100.00
24962;BME280;12992;50.884;13.668;2023-02-02T10:18:47;97415.91;;;2.31;100.00
24962;BME280;12992;50.884;13.668;2023-02-02T10:23:41;97425.44;;;2.34;100.00
24962;BME280;12992;50.884;13.668;2023-02-02T10:26:15;97443.63;;;2.38;100.00
24962;BME280;12992;50.884;13.668;2023-02-02T10:31:41;97437.16;;;2.26;100.00
24962;BME280;12992;50.884;13.668;2023-02-02T10:34:16;97424.72;;;2.18;100.00
24962;BME280;12992;50.884;13.668;2023-02-02T10:36:57;97430.72;;;2.14;100.00
24962;BME280;12992;50.884;13.668;2023-02-02T10:42:16;97442.97;;;2.23;100.00
24962;BME280;12992;50.884;13.668;2023-02-02T10:47:12;97454.38;;;2.32;100.00
24962;BME280;12992;50.884;13.668;2023-02-02T10:49:40;97459.75;;;2.38;100.00
24962;BME280;12992;50.884;13.668;2023-02-02T11:00:31;97479.50;;;2.59;100.00
24962;BME280;12992;50.884;13.668;2023-02-02T11:03:00;97479.69;;;2.64;100.00
24962;BME280;12992;50.884;13.668;2023-02-02T11:05:29;97469.53;;;2.52;100.00
24962;BME280;12992;50.884;13.668;2023-02-02T11:08:18;97456.22;;;2.38;100.00
24962;BME280;12992;50.884;13.668;2023-02-02T11:10:45;97466.41;;;2.42;100.00
24962;BME280;12992;50.884;13.668;2023-02-02T11:13:28;97475.06;;;2.44;100.00
24962;BME280;12992;50.884;13.668;2023-02-02T11:18:38;97479.88;;;2.49;100.00
24962;BME280;12992;50.884;13.668;2023-02-02T11:21:18;97469.25;;;2.34;100.00
24962;BME280;12992;50.884;13.668;2023-02-02T11:24:04;97467.94;;;2.17;100.00
24962;BME280;12992;50.884;13.668;2023-02-02T11:26:49;97452.75;;;2.03;100.00
24962;BME280;12992;50.884;13.668;2023-02-02T11:37:30;97492.56;;;2.27;100.00
24962;BME280;12992;50.884;13.668;2023-02-02T11:40:25;97490.34;;;2.37;100.00
24962;BME280;12992;50.884;13.668;2023-02-02T11:42:53;97509.84;;;2.52;100.00
24962;BME280;12992;50.884;13.668;2023-02-02T11:45:35;97520.59;;;2.52;100.00
24962;BME280;12992;50.884;13.668;2023-02-02T11:48:04;97511.06;;;2.43;100.00
24962;BME280;12992;50.884;13.668;2023-02-02T11:50:30;97520.16;;;2.42;100.00
24962;BME280;12992;50.884;13.668;2023-02-02T11:52:56;97506.63;;;2.29;100.00
24962;BME280;12992;50.884;13.668;2023-02-02T11:55:26;97500.84;;;2.25;100.00
24962;BME280;12992;50.884;13.668;2023-02-02T12:00:46;97519.69;;;2.32;100.00
24962;BME280;12992;50.884;13.668;2023-02-02T12:05:51;97519.69;;;2.32;100.00
24962;BME280;12992;50.884;13.668;2023-02-02T12:08:16;97520.72;;;2.31;100.00
24962;BME280;12992;50.884;13.668;2023-02-02T12:10:50;97512.00;;;2.29;100.00
24962;BME280;12992;50.884;13.668;2023-02-02T12:13:28;97531.94;;;2.41;100.00
24962;BME280;12992;50.884;13.668;2023-02-02T12:16:09;97547.56;;;2.66;100.00
24962;BME280;12992;50.884;13.668;2023-02-02T12:26:54;97558.72;;;3.24;100.00
24962;BME280;12992;50.884;13.668;2023-02-02T12:29:39;97557.69;;;3.25;100.00
24962;BME280;12992;50.884;13.668;2023-02-02T12:32:18;97545.25;;;3.17;100.00
24962;BME280;12992;50.884;13.668;2023-02-02T12:40:22;97542.38;;;3.19;100.00
24962;BME280;12992;50.884;13.668;2023-02-02T12:48:14;97547.34;;;3.22;100.00
24962;BME280;12992;50.884;13.668;2023-02-02T12:51:17;97561.00;;;3.27;100.00
24962;BME280;12992;50.884;13.668;2023-02-02T12:53:59;97556.03;;;3.24;100.00
24962;BME280;12992;50.884;13.668;2023-02-02T12:56:43;97544.22;;;3.11;100.00
24962;BME280;12992;50.884;13.668;2023-02-02T12:59:55;97543.16;;;3.06;100.00
24962;BME280;12992;50.884;13.668;2023-02-02T13:10:37;97530.03;;;2.76;100.00
24962;BME280;12992;50.884;13.668;2023-02-02T13:13:24;97541.22;;;2.87;100.00
24962;BME280;12992;50.884;13.668;2023-02-02T13:15:59;97564.22;;;2.96;100.00
24962;BME280;12992;50.884;13.668;2023-02-02T13:18:52;97553.47;;;2.96;100.00
24962;BME280;12992;50.884;13.668;2023-02-02T13:21:18;97557.81;;;2.97;100.00
24962;BME280;12992;50.884;13.668;2023-02-02T13:23:49;97559.88;;;2.95;100.00
24962;BME280;12992;50.884;13.668;2023-02-02T13:26:20;97570.84;;;3.00;100.00
24962;BME280;12992;50.884;13.668;2023-02-02T13:28:54;97551.56;;;2.90;100.00
24962;BME280;12992;50.884;13.668;2023-02-02T13:31:41;97555.91;;;2.84;100.00
24962;BME280;12992;50.884;13.668;2023-02-02T13:34:34;97551.75;;;2.75;100.00
24962;BME280;12992;50.884;13.668;2023-02-02T13:42:48;97554.31;;;2.48;100.00
24962;BME280;12992;50.884;13.668;2023-02-02T13:45:33;97563.56;;;2.39;100.00
24962;BME280;12992;50.884;13.668;2023-02-02T13:59:34;97599.69;;;2.37;100.00
24962;BME280;12992;50.884;13.668;2023-02-02T14:02:19;97599.06;;;2.35;100.00
24962;BME280;12992;50.884;13.668;2023-02-02T14:04:54;97622.09;;;2.44;100.00
24962;BME280;12992;50.884;13.668;2023-02-02T14:07:31;97646.31;;;2.50;100.00
24962;BME280;12992;50.884;13.668;2023-02-02T14:09:59;97652.81;;;2.63;100.00
24962;BME280;12992;50.884;13.668;2023-02-02T14:12:30;97650.38;;;2.68;100.00
24962;BME280;12992;50.884;13.668;2023-02-02T14:14:57;97660.50;;;2.72;100.00
24962;BME280;12992;50.884;13.668;2023-02-02T14:19:55;97668.00;;;2.77;100.00
24962;BME280;12992;50.884;13.668;2023-02-02T14:27:58;97675.03;;;2.78;100.00
24962;BME280;12992;50.884;13.668;2023-02-02T14:30:27;97685.38;;;2.74;100.00
24962;BME280;12992;50.884;13.668;2023-02-02T14:33:26;97678.91;;;2.69;100.00
24962;BME280;12992;50.884;13.668;2023-02-02T14:35:54;97674.56;;;2.68;100.00
24962;BME280;12992;50.884;13.668;2023-02-02T14:38:53;97665.47;;;2.69;100.00
24962;BME280;12992;50.884;13.668;2023-02-02T14:41:45;97677.47;;;2.73;100.00
24962;BME280;12992;50.884;13.668;2023-02-02T14:44:32;97686.97;;;2.69;100.00
24962;BME280;12992;50.884;13.668;2023-02-02T14:47:01;97694.44;;;2.67;100.00
24962;BME280;12992;50.884;13.668;2023-02-02T14:49:31;97683.66;;;2.67;100.00
24962;BME280;12992;50.884;13.668;2023-02-02T14:51:59;97693.59;;;2.66;100.00
24962;BME280;12992;50.884;13.668;2023-02-02T14:54:29;97694.78;;;2.64;100.00
24962;BME280;12992;50.884;13.668;2023-02-02T14:56:59;97678.81;;;2.55;100.00